sensor_id;sensor_type;location;lat;lon;timestamp;P1;durP1;ratioP1;P2;durP2;ratioP2
71360;SDS011;59166;48.908;1.870;2023-03-18T00:00:59;13.03;;;5.70;;
71360;SDS011;59166;48.908;1.870;2023-03-18T00:06:03;12.98;;;5.40;;
71360;SDS011;59166;48.908;1.870;2023-03-18T00:11:05;11.73;;;5.32;;
71360;SDS011;59166;48.908;1.870;2023-03-18T00:16:07;10.70;;;5.23;;
71360;SDS011;59166;48.908;1.870;2023-03-18T00:21:11;13.02;;;5.28;;
71360;SDS011;59166;48.908;1.870;2023-03-18T00:26:12;12.50;;;5.68;;
71360;SDS011;59166;48.908;1.870;2023-03-18T00:31:13;17.03;;;6.00;;
71360;SDS011;59166;48.908;1.870;2023-03-18T00:36:15;14.07;;;6.22;;
71360;SDS011;59166;48.908;1.870;2023-03-18T00:41:17;11.77;;;5.47;;
71360;SDS011;59166;48.908;1.870;2023-03-18T00:46:19;13.73;;;6.10;;
71360;SDS011;59166;48.908;1.870;2023-03-18T00:51:23;12.30;;;5.45;;
71360;SDS011;59166;48.908;1.870;2023-03-18T00:56:25;12.40;;;5.40;;
71360;SDS011;59166;48.908;1.870;2023-03-18T01:01:28;11.80;;;5.27;;
71360;SDS011;59166;48.908;1.870;2023-03-18T01:06:31;13.20;;;4.97;;
71360;SDS011;59166;48.908;1.870;2023-03-18T01:11:33;11.27;;;4.97;;
71360;SDS011;59166;48.908;1.870;2023-03-18T01:16:34;11.27;;;5.10;;
71360;SDS011;59166;48.908;1.870;2023-03-18T01:21:37;11.50;;;5.22;;
71360;SDS011;59166;48.908;1.870;2023-03-18T01:26:37;11.65;;;5.50;;
71360;SDS011;59166;48.908;1.870;2023-03-18T01:31:38;13.23;;;5.87;;
71360;SDS011;59166;48.908;1.870;2023-03-18T01:36:43;12.00;;;5.65;;
71360;SDS011;59166;48.908;1.870;2023-03-18T01:41:44;12.80;;;5.57;;
71360;SDS011;59166;48.908;1.870;2023-03-18T01:46:46;12.10;;;5.55;;
71360;SDS011;59166;48.908;1.870;2023-03-18T01:51:50;12.18;;;5.40;;
71360;SDS011;59166;48.908;1.870;2023-03-18T01:56:53;13.37;;;5.63;;
71360;SDS011;59166;48.908;1.870;2023-03-18T02:01:57;14.33;;;5.60;;
71360;SDS011;59166;48.908;1.870;2023-03-18T02:07:02;11.57;;;5.35;;
71360;SDS011;59166;48.908;1.870;2023-03-18T02:12:03;13.38;;;5.38;;
71360;SDS011;59166;48.908;1.870;2023-03-18T02:17:07;11.00;;;5.00;;
71360;SDS011;59166;48.908;1.870;2023-03-18T02:22:14;11.45;;;5.32;;
71360;SDS011;59166;48.908;1.870;2023-03-18T02:27:23;12.15;;;5.55;;
71360;SDS011;59166;48.908;1.870;2023-03-18T02:32:26;13.43;;;5.80;;
71360;SDS011;59166;48.908;1.870;2023-03-18T02:37:29;14.02;;;6.40;;
71360;SDS011;59166;48.908;1.870;2023-03-18T02:42:31;13.77;;;6.28;;
71360;SDS011;59166;48.908;1.870;2023-03-18T02:47:32;15.93;;;6.63;;
71360;SDS011;59166;48.908;1.870;2023-03-18T02:52:33;13.68;;;6.25;;
71360;SDS011;59166;48.908;1.870;2023-03-18T02:57:35;14.40;;;6.43;;
71360;SDS011;59166;48.908;1.870;2023-03-18T03:02:36;14.87;;;6.40;;
71360;SDS011;59166;48.908;1.870;2023-03-18T03:07:37;15.27;;;6.00;;
71360;SDS011;59166;48.908;1.870;2023-03-18T03:12:39;14.80;;;5.93;;
71360;SDS011;59166;48.908;1.870;2023-03-18T03:17:40;14.05;;;5.95;;
71360;SDS011;59166;48.908;1.870;2023-03-18T03:22:41;14.00;;;5.90;;
71360;SDS011;59166;48.908;1.870;2023-03-18T03:27:43;14.25;;;5.65;;
71360;SDS011;59166;48.908;1.870;2023-03-18T03:32:44;11.52;;;5.50;;
71360;SDS011;59166;48.908;1.870;2023-03-18T03:37:45;12.20;;;5.50;;
71360;SDS011;59166;48.908;1.870;2023-03-18T03:42:48;12.95;;;4.90;;
71360;SDS011;59166;48.908;1.870;2023-03-18T03:47:48;12.50;;;5.25;;
71360;SDS011;59166;48.908;1.870;2023-03-18T03:52:49;10.73;;;5.00;;
71360;SDS011;59166;48.908;1.870;2023-03-18T03:57:52;10.45;;;4.70;;
71360;SDS011;59166;48.908;1.870;2023-03-18T04:02:53;10.98;;;4.88;;
71360;SDS011;59166;48.908;1.870;2023-03-18T04:07:53;12.33;;;5.07;;
71360;SDS011;59166;48.908;1.870;2023-03-18T04:12:56;10.45;;;4.75;;
71360;SDS011;59166;48.908;1.870;2023-03-18T04:17:57;10.70;;;4.55;;
71360;SDS011;59166;48.908;1.870;2023-03-18T04:22:58;9.33;;;4.40;;
71360;SDS011;59166;48.908;1.870;2023-03-18T04:28:01;11.52;;;4.40;;
71360;SDS011;59166;48.908;1.870;2023-03-18T04:33:02;12.18;;;4.30;;
71360;SDS011;59166;48.908;1.870;2023-03-18T04:38:03;10.77;;;4.23;;
71360;SDS011;59166;48.908;1.870;2023-03-18T04:43:05;9.38;;;4.30;;
71360;SDS011;59166;48.908;1.870;2023-03-18T04:48:06;10.32;;;4.13;;
71360;SDS011;59166;48.908;1.870;2023-03-18T04:53:07;10.67;;;3.83;;
71360;SDS011;59166;48.908;1.870;2023-03-18T04:58:10;9.13;;;3.88;;
71360;SDS011;59166;48.908;1.870;2023-03-18T05:03:11;8.80;;;3.70;;
71360;SDS011;59166;48.908;1.870;2023-03-18T05:08:12;10.13;;;4.10;;
71360;SDS011;59166;48.908;1.870;2023-03-18T05:13:14;9.15;;;3.50;;
71360;SDS011;59166;48.908;1.870;2023-03-18T05:18:15;10.67;;;3.63;;
71360;SDS011;59166;48.908;1.870;2023-03-18T05:23:16;10.33;;;4.00;;
71360;SDS011;59166;48.908;1.870;2023-03-18T05:28:18;8.50;;;3.05;;
71360;SDS011;59166;48.908;1.870;2023-03-18T05:33:19;9.23;;;3.10;;
71360;SDS011;59166;48.908;1.870;2023-03-18T05:38:20;7.80;;;2.85;;
71360;SDS011;59166;48.908;1.870;2023-03-18T05:43:23;8.60;;;2.63;;
71360;SDS011;59166;48.908;1.870;2023-03-18T05:48:24;7.80;;;2.60;;
71360;SDS011;59166;48.908;1.870;2023-03-18T05:53:25;7.72;;;2.60;;
71360;SDS011;59166;48.908;1.870;2023-03-18T05:58:28;6.32;;;2.33;;
71360;SDS011;59166;48.908;1.870;2023-03-18T06:03:28;7.43;;;2.60;;
71360;SDS011;59166;48.908;1.870;2023-03-18T06:08:29;6.10;;;2.17;;
71360;SDS011;59166;48.908;1.870;2023-03-18T06:13:32;7.73;;;2.30;;
71360;SDS011;59166;48.908;1.870;2023-03-18T06:18:33;8.70;;;2.50;;
71360;SDS011;59166;48.908;1.870;2023-03-18T06:23:34;7.57;;;2.30;;
71360;SDS011;59166;48.908;1.870;2023-03-18T06:28:36;6.57;;;2.20;;
71360;SDS011;59166;48.908;1.870;2023-03-18T06:33:37;7.05;;;2.42;;
71360;SDS011;59166;48.908;1.870;2023-03-18T06:38:39;6.47;;;2.20;;
71360;SDS011;59166;48.908;1.870;2023-03-18T06:43:41;7.90;;;2.53;;
71360;SDS011;59166;48.908;1.870;2023-03-18T06:48:42;6.78;;;2.28;;
71360;SDS011;59166;48.908;1.870;2023-03-18T06:53:43;6.33;;;2.27;;
71360;SDS011;59166;48.908;1.870;2023-03-18T06:58:45;6.30;;;2.03;;
71360;SDS011;59166;48.908;1.870;2023-03-18T07:03:46;6.20;;;2.20;;
71360;SDS011;59166;48.908;1.870;2023-03-18T07:08:47;6.90;;;2.20;;
71360;SDS011;59166;48.908;1.870;2023-03-18T07:13:50;6.70;;;2.40;;
71360;SDS011;59166;48.908;1.870;2023-03-18T07:18:51;8.63;;;2.50;;
71360;SDS011;59166;48.908;1.870;2023-03-18T07:23:52;7.72;;;2.30;;
71360;SDS011;59166;48.908;1.870;2023-03-18T07:28:54;9.50;;;2.70;;
71360;SDS011;59166;48.908;1.870;2023-03-18T07:33:55;7.63;;;2.40;;
71360;SDS011;59166;48.908;1.870;2023-03-18T07:38:56;6.30;;;2.55;;
71360;SDS011;59166;48.908;1.870;2023-03-18T07:43:59;7.28;;;2.42;;
71360;SDS011;59166;48.908;1.870;2023-03-18T07:48:59;6.13;;;2.23;;
71360;SDS011;59166;48.908;1.870;2023-03-18T07:54:00;8.82;;;2.95;;
71360;SDS011;59166;48.908;1.870;2023-03-18T07:59:03;8.70;;;2.67;;
71360;SDS011;59166;48.908;1.870;2023-03-18T08:04:04;7.60;;;2.37;;
71360;SDS011;59166;48.908;1.870;2023-03-18T08:09:05;7.65;;;2.40;;
71360;SDS011;59166;48.908;1.870;2023-03-18T08:14:07;6.03;;;2.10;;
71360;SDS011;59166;48.908;1.870;2023-03-18T08:19:08;8.23;;;2.42;;
71360;SDS011;59166;48.908;1.870;2023-03-18T08:24:09;8.20;;;2.60;;
71360;SDS011;59166;48.908;1.870;2023-03-18T08:29:11;7.40;;;2.40;;
71360;SDS011;59166;48.908;1.870;2023-03-18T08:34:12;7.85;;;2.60;;
71360;SDS011;59166;48.908;1.870;2023-03-18T08:39:13;7.87;;;2.50;;
71360;SDS011;59166;48.908;1.870;2023-03-18T08:44:15;7.47;;;2.40;;
71360;SDS011;59166;48.908;1.870;2023-03-18T08:49:16;6.82;;;2.15;;
71360;SDS011;59166;48.908;1.870;2023-03-18T08:54:17;6.93;;;2.30;;
71360;SDS011;59166;48.908;1.870;2023-03-18T08:59:19;6.90;;;2.17;;
71360;SDS011;59166;48.908;1.870;2023-03-18T09:04:20;5.77;;;1.80;;
71360;SDS011;59166;48.908;1.870;2023-03-18T09:09:21;10.20;;;2.20;;
71360;SDS011;59166;48.908;1.870;2023-03-18T09:14:23;8.73;;;2.17;;
71360;SDS011;59166;48.908;1.870;2023-03-18T09:19:24;7.80;;;2.10;;
71360;SDS011;59166;48.908;1.870;2023-03-18T09:24:25;5.20;;;1.70;;
71360;SDS011;59166;48.908;1.870;2023-03-18T09:29:27;7.87;;;1.60;;
71360;SDS011;59166;48.908;1.870;2023-03-18T09:34:28;7.53;;;1.60;;
71360;SDS011;59166;48.908;1.870;2023-03-18T09:39:29;5.93;;;1.60;;
71360;SDS011;59166;48.908;1.870;2023-03-18T09:44:32;6.63;;;1.70;;
71360;SDS011;59166;48.908;1.870;2023-03-18T09:49:37;5.25;;;1.70;;
71360;SDS011;59166;48.908;1.870;2023-03-18T09:54:48;6.20;;;1.50;;
71360;SDS011;59166;48.908;1.870;2023-03-18T09:59:59;7.63;;;1.60;;
71360;SDS011;59166;48.908;1.870;2023-03-18T10:05:06;6.20;;;1.60;;
71360;SDS011;59166;48.908;1.870;2023-03-18T10:10:32;7.13;;;1.70;;
71360;SDS011;59166;48.908;1.870;2023-03-18T10:15:39;6.03;;;1.50;;
71360;SDS011;59166;48.908;1.870;2023-03-18T10:20:48;5.72;;;1.50;;
71360;SDS011;59166;48.908;1.870;2023-03-18T10:26:18;5.93;;;1.40;;
71360;SDS011;59166;48.908;1.870;2023-03-18T10:31:29;6.97;;;1.70;;
71360;SDS011;59166;48.908;1.870;2023-03-18T10:36:59;9.30;;;1.60;;
71360;SDS011;59166;48.908;1.870;2023-03-18T10:42:11;6.80;;;1.55;;
71360;SDS011;59166;48.908;1.870;2023-03-18T10:47:24;7.03;;;1.50;;
71360;SDS011;59166;48.908;1.870;2023-03-18T10:52:30;5.43;;;1.30;;
71360;SDS011;59166;48.908;1.870;2023-03-18T10:57:36;5.90;;;1.38;;
71360;SDS011;59166;48.908;1.870;2023-03-18T11:02:38;5.00;;;1.20;;
71360;SDS011;59166;48.908;1.870;2023-03-18T11:07:53;4.20;;;1.00;;
71360;SDS011;59166;48.908;1.870;2023-03-18T11:12:58;6.53;;;1.40;;
71360;SDS011;59166;48.908;1.870;2023-03-18T11:18:01;5.80;;;1.25;;
71360;SDS011;59166;48.908;1.870;2023-03-18T11:23:04;6.20;;;1.30;;
71360;SDS011;59166;48.908;1.870;2023-03-18T11:28:05;3.35;;;0.90;;
71360;SDS011;59166;48.908;1.870;2023-03-18T11:33:24;6.47;;;1.00;;
71360;SDS011;59166;48.908;1.870;2023-03-18T11:38:27;3.87;;;1.13;;
71360;SDS011;59166;48.908;1.870;2023-03-18T11:43:30;5.47;;;1.02;;
71360;SDS011;59166;48.908;1.870;2023-03-18T11:48:34;3.75;;;0.90;;
71360;SDS011;59166;48.908;1.870;2023-03-18T11:53:40;4.30;;;1.00;;
71360;SDS011;59166;48.908;1.870;2023-03-18T11:58:53;3.83;;;0.88;;
71360;SDS011;59166;48.908;1.870;2023-03-18T12:09:41;5.67;;;1.20;;
71360;SDS011;59166;48.908;1.870;2023-03-18T12:14:51;5.55;;;1.00;;
71360;SDS011;59166;48.908;1.870;2023-03-18T12:37:03;6.80;;;1.30;;
71360;SDS011;59166;48.908;1.870;2023-03-18T12:42:29;4.55;;;1.10;;
71360;SDS011;59166;48.908;1.870;2023-03-18T12:47:51;5.33;;;1.00;;
71360;SDS011;59166;48.908;1.870;2023-03-18T12:53:02;4.70;;;1.05;;
71360;SDS011;59166;48.908;1.870;2023-03-18T12:58:16;6.82;;;1.20;;
71360;SDS011;59166;48.908;1.870;2023-03-18T13:03:30;5.77;;;1.17;;
71360;SDS011;59166;48.908;1.870;2023-03-18T13:08:49;3.65;;;1.00;;
71360;SDS011;59166;48.908;1.870;2023-03-18T13:13:59;5.30;;;1.13;;
71360;SDS011;59166;48.908;1.870;2023-03-18T13:19:07;4.23;;;1.00;;
71360;SDS011;59166;48.908;1.870;2023-03-18T13:24:14;3.60;;;1.00;;
71360;SDS011;59166;48.908;1.870;2023-03-18T13:29:53;3.15;;;1.13;;
71360;SDS011;59166;48.908;1.870;2023-03-18T13:40:36;4.17;;;1.00;;
71360;SDS011;59166;48.908;1.870;2023-03-18T13:45:51;6.47;;;1.08;;
71360;SDS011;59166;48.908;1.870;2023-03-18T13:50:53;4.13;;;0.90;;
71360;SDS011;59166;48.908;1.870;2023-03-18T13:56:01;4.80;;;1.10;;
71360;SDS011;59166;48.908;1.870;2023-03-18T14:01:12;5.57;;;1.10;;
71360;SDS011;59166;48.908;1.870;2023-03-18T14:06:20;4.55;;;1.23;;
71360;SDS011;59166;48.908;1.870;2023-03-18T14:16:50;3.30;;;1.10;;
71360;SDS011;59166;48.908;1.870;2023-03-18T14:21:52;4.65;;;1.20;;
71360;SDS011;59166;48.908;1.870;2023-03-18T14:27:08;8.60;;;1.40;;
71360;SDS011;59166;48.908;1.870;2023-03-18T16:11:19;5.28;;;1.50;;
71360;SDS011;59166;48.908;1.870;2023-03-18T16:16:22;6.03;;;1.65;;
71360;SDS011;59166;48.908;1.870;2023-03-18T16:21:25;6.30;;;1.57;;
71360;SDS011;59166;48.908;1.870;2023-03-18T16:26:28;5.90;;;1.60;;
71360;SDS011;59166;48.908;1.870;2023-03-18T16:31:29;5.75;;;1.40;;
71360;SDS011;59166;48.908;1.870;2023-03-18T16:36:31;5.40;;;1.50;;
71360;SDS011;59166;48.908;1.870;2023-03-18T16:41:34;3.97;;;1.30;;
71360;SDS011;59166;48.908;1.870;2023-03-18T16:46:35;6.82;;;1.63;;
71360;SDS011;59166;48.908;1.870;2023-03-18T16:51:38;6.00;;;1.50;;
71360;SDS011;59166;48.908;1.870;2023-03-18T16:56:40;6.37;;;1.80;;
71360;SDS011;59166;48.908;1.870;2023-03-18T17:01:42;6.13;;;1.63;;
71360;SDS011;59166;48.908;1.870;2023-03-18T17:06:44;6.38;;;1.63;;
71360;SDS011;59166;48.908;1.870;2023-03-18T17:11:46;4.57;;;1.40;;
71360;SDS011;59166;48.908;1.870;2023-03-18T17:16:48;5.83;;;1.50;;
71360;SDS011;59166;48.908;1.870;2023-03-18T17:21:49;5.93;;;1.55;;
71360;SDS011;59166;48.908;1.870;2023-03-18T17:26:52;4.60;;;1.30;;
71360;SDS011;59166;48.908;1.870;2023-03-18T17:31:54;4.77;;;1.00;;
71360;SDS011;59166;48.908;1.870;2023-03-18T17:36:56;2.53;;;1.00;;
71360;SDS011;59166;48.908;1.870;2023-03-18T17:41:58;4.55;;;1.20;;
71360;SDS011;59166;48.908;1.870;2023-03-18T17:46:59;4.17;;;1.10;;
71360;SDS011;59166;48.908;1.870;2023-03-18T17:52:00;4.55;;;1.08;;
71360;SDS011;59166;48.908;1.870;2023-03-18T17:57:03;3.80;;;0.93;;
71360;SDS011;59166;48.908;1.870;2023-03-18T18:02:07;3.30;;;1.10;;
71360;SDS011;59166;48.908;1.870;2023-03-18T18:07:14;7.67;;;3.07;;
71360;SDS011;59166;48.908;1.870;2023-03-18T18:12:20;24.88;;;12.73;;
71360;SDS011;59166;48.908;1.870;2023-03-18T18:17:27;14.00;;;7.22;;
71360;SDS011;59166;48.908;1.870;2023-03-18T18:22:35;14.50;;;6.27;;
71360;SDS011;59166;48.908;1.870;2023-03-18T18:27:42;5.63;;;2.17;;
71360;SDS011;59166;48.908;1.870;2023-03-18T18:32:43;3.95;;;1.50;;
71360;SDS011;59166;48.908;1.870;2023-03-18T18:37:45;5.83;;;1.90;;
71360;SDS011;59166;48.908;1.870;2023-03-18T18:42:49;5.45;;;1.95;;
71360;SDS011;59166;48.908;1.870;2023-03-18T18:47:50;5.93;;;2.00;;
71360;SDS011;59166;48.908;1.870;2023-03-18T18:52:51;6.13;;;2.00;;
71360;SDS011;59166;48.908;1.870;2023-03-18T18:57:53;5.03;;;1.80;;
71360;SDS011;59166;48.908;1.870;2023-03-18T19:02:55;5.88;;;1.90;;
71360;SDS011;59166;48.908;1.870;2023-03-18T19:07:56;6.18;;;1.90;;
71360;SDS011;59166;48.908;1.870;2023-03-18T19:12:59;9.00;;;1.93;;
71360;SDS011;59166;48.908;1.870;2023-03-18T19:18:00;5.63;;;1.90;;
71360;SDS011;59166;48.908;1.870;2023-03-18T19:23:01;6.57;;;2.08;;
71360;SDS011;59166;48.908;1.870;2023-03-18T19:28:07;7.80;;;3.10;;
71360;SDS011;59166;48.908;1.870;2023-03-18T19:33:12;9.68;;;3.80;;
71360;SDS011;59166;48.908;1.870;2023-03-18T19:38:14;7.05;;;2.50;;
71360;SDS011;59166;48.908;1.870;2023-03-18T19:43:20;7.43;;;2.80;;
71360;SDS011;59166;48.908;1.870;2023-03-18T19:48:22;6.57;;;2.50;;
71360;SDS011;59166;48.908;1.870;2023-03-18T19:53:24;6.50;;;2.50;;
71360;SDS011;59166;48.908;1.870;2023-03-18T19:58:27;8.27;;;3.10;;
71360;SDS011;59166;48.908;1.870;2023-03-18T20:03:29;7.40;;;2.60;;
71360;SDS011;59166;48.908;1.870;2023-03-18T20:08:29;8.55;;;3.03;;
71360;SDS011;59166;48.908;1.870;2023-03-18T20:13:32;7.25;;;2.67;;
71360;SDS011;59166;48.908;1.870;2023-03-18T20:18:33;6.53;;;2.40;;
71360;SDS011;59166;48.908;1.870;2023-03-18T20:23:34;7.75;;;2.88;;
71360;SDS011;59166;48.908;1.870;2023-03-18T20:28:36;5.93;;;2.30;;
71360;SDS011;59166;48.908;1.870;2023-03-18T20:33:37;6.13;;;2.17;;
71360;SDS011;59166;48.908;1.870;2023-03-18T20:38:38;6.75;;;2.38;;
71360;SDS011;59166;48.908;1.870;2023-03-18T20:43:40;6.37;;;2.30;;
71360;SDS011;59166;48.908;1.870;2023-03-18T20:48:41;7.07;;;2.60;;
71360;SDS011;59166;48.908;1.870;2023-03-18T20:53:43;5.82;;;2.25;;
71360;SDS011;59166;48.908;1.870;2023-03-18T20:58:45;5.20;;;2.10;;
71360;SDS011;59166;48.908;1.870;2023-03-18T21:03:46;5.68;;;2.30;;
71360;SDS011;59166;48.908;1.870;2023-03-18T21:08:47;6.17;;;2.20;;
71360;SDS011;59166;48.908;1.870;2023-03-18T21:13:49;6.05;;;2.40;;
71360;SDS011;59166;48.908;1.870;2023-03-18T21:18:50;5.73;;;2.30;;
71360;SDS011;59166;48.908;1.870;2023-03-18T21:23:51;6.93;;;2.58;;
71360;SDS011;59166;48.908;1.870;2023-03-18T21:28:54;7.05;;;2.80;;
71360;SDS011;59166;48.908;1.870;2023-03-18T21:33:56;6.97;;;2.87;;
71360;SDS011;59166;48.908;1.870;2023-03-18T21:38:57;7.63;;;3.30;;
71360;SDS011;59166;48.908;1.870;2023-03-18T21:43:59;10.80;;;4.67;;
71360;SDS011;59166;48.908;1.870;2023-03-18T21:49:00;9.80;;;3.67;;
71360;SDS011;59166;48.908;1.870;2023-03-18T21:54:01;10.02;;;3.85;;
71360;SDS011;59166;48.908;1.870;2023-03-18T21:59:03;8.87;;;3.40;;
71360;SDS011;59166;48.908;1.870;2023-03-18T22:04:04;8.95;;;3.70;;
71360;SDS011;59166;48.908;1.870;2023-03-18T22:09:05;8.57;;;3.60;;
71360;SDS011;59166;48.908;1.870;2023-03-18T22:14:07;7.30;;;2.72;;
71360;SDS011;59166;48.908;1.870;2023-03-18T22:19:12;8.00;;;2.45;;
71360;SDS011;59166;48.908;1.870;2023-03-18T22:24:13;6.50;;;2.07;;
71360;SDS011;59166;48.908;1.870;2023-03-18T22:29:15;5.80;;;2.13;;
71360;SDS011;59166;48.908;1.870;2023-03-18T22:34:18;6.33;;;2.20;;
71360;SDS011;59166;48.908;1.870;2023-03-18T22:39:21;6.28;;;1.92;;
71360;SDS011;59166;48.908;1.870;2023-03-18T22:44:23;5.00;;;1.83;;
71360;SDS011;59166;48.908;1.870;2023-03-18T22:49:24;7.30;;;2.73;;
71360;SDS011;59166;48.908;1.870;2023-03-18T22:54:25;7.65;;;2.20;;
71360;SDS011;59166;48.908;1.870;2023-03-18T22:59:27;7.97;;;2.23;;
71360;SDS011;59166;48.908;1.870;2023-03-18T23:04:28;6.68;;;2.17;;
71360;SDS011;59166;48.908;1.870;2023-03-18T23:09:29;7.13;;;2.20;;
71360;SDS011;59166;48.908;1.870;2023-03-18T23:14:31;10.93;;;3.30;;
71360;SDS011;59166;48.908;1.870;2023-03-18T23:19:35;8.23;;;2.70;;
71360;SDS011;59166;48.908;1.870;2023-03-18T23:24:36;7.78;;;2.45;;
71360;SDS011;59166;48.908;1.870;2023-03-18T23:29:38;5.68;;;2.25;;
71360;SDS011;59166;48.908;1.870;2023-03-18T23:34:39;9.57;;;2.60;;
71360;SDS011;59166;48.908;1.870;2023-03-18T23:39:40;7.63;;;2.63;;
71360;SDS011;59166;48.908;1.870;2023-03-18T23:44:43;10.00;;;3.40;;
71360;SDS011;59166;48.908;1.870;2023-03-18T23:49:44;7.97;;;3.00;;
71360;SDS011;59166;48.908;1.870;2023-03-18T23:54:44;8.00;;;3.30;;
71360;SDS011;59166;48.908;1.870;2023-03-18T23:59:47;7.67;;;2.63;;
